createdAt,value
2022-11-25T00:05:10.537Z,8
2022-11-25T00:15:11.449Z,8.1
2022-11-25T00:35:12.248Z,8.4
2022-11-25T00:45:12.642Z,8.5
2022-11-25T00:55:12.694Z,8.6
2022-11-25T01:05:13.278Z,8.8
2022-11-25T01:15:13.540Z,8.9
2022-11-25T01:25:13.928Z,8.9
2022-11-25T01:35:14.729Z,8.9
2022-11-25T01:45:15.100Z,8.9
2022-11-25T01:55:15.323Z,8.9
2022-11-25T02:05:16.219Z,8.8
2022-11-25T02:15:17.184Z,8.8
2022-11-25T02:25:17.625Z,8.7
2022-11-25T02:35:18.275Z,8.7
2022-11-25T02:45:18.703Z,8.6
2022-11-25T02:55:19.098Z,8.7
2022-11-25T03:05:19.266Z,8.8
2022-11-25T03:15:20.318Z,8.8
2022-11-25T03:25:20.426Z,8.8
2022-11-25T03:35:21.134Z,8.8
2022-11-25T03:45:21.573Z,8.7
2022-11-25T03:55:21.698Z,8.8
2022-11-25T04:05:22.324Z,8.9
2022-11-25T04:25:23.274Z,9
2022-11-25T04:35:24.149Z,9
2022-11-25T04:45:24.796Z,9.1
2022-11-25T04:55:25.044Z,9
2022-11-25T05:05:25.374Z,8.9
2022-11-25T05:15:26.042Z,8.6
2022-11-25T05:25:26.067Z,8.5
2022-11-25T05:35:26.607Z,8.5
2022-11-25T05:45:27.243Z,8.4
2022-11-25T05:55:28.190Z,8.3
2022-11-25T06:05:28.715Z,8.2
2022-11-25T06:15:29.508Z,8
2022-11-25T06:25:30.285Z,8
2022-11-25T06:35:30.441Z,8
2022-11-25T06:45:31.392Z,8
2022-11-25T06:55:31.962Z,8
2022-11-25T07:05:32.967Z,7.9
2022-11-25T07:25:34.588Z,8
2022-11-25T07:35:34.670Z,7.9
2022-11-25T07:45:34.768Z,7.8
2022-11-25T07:55:34.962Z,7.9
2022-11-25T08:05:35.623Z,8
2022-11-25T08:15:36.028Z,8.1
2022-11-25T08:25:36.367Z,8.2
2022-11-25T08:35:36.831Z,8.3
2022-11-25T08:45:37.563Z,8.6
2022-11-25T08:55:38.329Z,8.6
2022-11-25T09:05:38.966Z,9.1
2022-11-25T09:15:39.481Z,9.4
2022-11-25T09:25:39.675Z,9.7
2022-11-25T09:35:39.947Z,10.1
2022-11-25T09:45:40.778Z,10.3
2022-11-25T09:55:41.693Z,10.6
2022-11-25T10:05:42.284Z,10.5
2022-11-25T10:15:42.527Z,10.1
2022-11-25T10:25:42.957Z,10.3
2022-11-25T10:35:43.610Z,10.6
2022-11-25T10:45:44.637Z,10.9
2022-11-25T10:55:45.047Z,10.2
2022-11-25T11:05:46.720Z,10.8
2022-11-25T11:25:47.370Z,11.3
2022-11-25T11:35:48.393Z,11.2
2022-11-25T11:56:05.881Z,11.1
2022-11-25T12:05:50.879Z,11.6
2022-11-25T12:15:51.359Z,11.6
2022-11-25T12:25:51.518Z,11.9
2022-11-25T12:35:52.097Z,11.7
2022-11-25T12:45:52.775Z,12.1
2022-11-25T12:55:53.265Z,11.9
2022-11-25T13:05:54.080Z,11.6
2022-11-25T13:15:54.390Z,11
2022-11-25T13:25:54.567Z,11
2022-11-25T13:35:54.737Z,10.9
2022-11-25T13:45:54.810Z,10.9
2022-11-25T13:55:55.500Z,11
2022-11-25T14:05:56.124Z,10.9
2022-11-25T14:15:56.420Z,10.8
2022-11-25T14:25:57.438Z,10.7
2022-11-25T14:35:57.971Z,10.7
2022-11-25T14:45:58.739Z,10.6
2022-11-25T14:55:58.989Z,10.6
2022-11-25T15:05:59.987Z,10.6
2022-11-25T15:16:01.051Z,10.6
2022-11-25T15:26:01.964Z,10.6
2022-11-25T15:36:02.569Z,10.5
2022-11-25T15:46:02.778Z,10.3
2022-11-25T15:56:02.778Z,10.1
2022-11-25T16:06:02.911Z,9.9
2022-11-25T16:16:03.532Z,9.8
2022-11-25T16:16:08.701Z,9.9
2022-11-25T16:26:09.032Z,9.9
2022-11-25T16:36:09.851Z,9.9
2022-11-25T16:46:09.992Z,9.9
2022-11-25T16:56:10.962Z,9.9
2022-11-25T17:16:13.101Z,9.5
2022-11-25T17:36:13.449Z,9.2
2022-11-25T17:56:15.215Z,9.3
2022-11-25T18:16:15.662Z,9.4
2022-11-25T18:26:15.864Z,9.5
2022-11-25T18:36:16.411Z,9.4
2022-11-25T19:46:27.154Z,9.2
2022-11-25T20:16:23.791Z,8.8
2022-11-25T21:06:27.452Z,8.6
2022-11-25T21:16:28.452Z,8.6
2022-11-25T21:26:29.132Z,8.4
2022-11-25T21:36:29.940Z,8.4
2022-11-25T21:46:31.029Z,8.3
2022-11-25T21:56:31.683Z,8.1
2022-11-25T22:06:31.834Z,7.9
2022-11-25T22:16:32.913Z,7.6
2022-11-25T22:26:33.010Z,7.4
2022-11-25T22:36:33.755Z,7.2
2022-11-25T22:46:34.129Z,7
2022-11-25T22:56:34.245Z,7
2022-11-25T23:06:35.243Z,6.8
2022-11-25T23:26:36.463Z,6.5
2022-11-25T23:36:36.752Z,6.4
2022-11-25T23:46:37.674Z,6.2
2022-11-25T23:56:38.348Z,6.4
